Time;durP1;ratioP1;P1;durP2;ratioP2;P2;SDS_P1;SDS_P2;PMS_P1;PMS_P2;Temp;Humidity;BMP_temperature;BMP_pressure;BME280_temperature;BME280_humidity;BME280_pressure;Samples;Min_cycle;Max_cycle;Signal;HPM_P1;HPM_P2
2024/02/05 00:02:24;;;;;;;2.17;2.07;;;;;;;13.81;50.87;99564.78;6995233;28;20322;-77
2024/02/05 00:05:47;;;;;;;2.30;2.10;;;;;;;13.92;51.27;99556.03;7000018;28;20212;-78
2024/02/05 00:09:09;;;;;;;2.00;1.90;;;;;;;13.61;51.81;99558.47;6999009;28;20278;-77
2024/02/05 00:12:31;;;;;;;3.07;2.40;;;;;;;13.71;51.82;99567.06;6985436;28;20198;-79
2024/02/05 00:15:52;;;;;;;2.70;2.30;;;;;;;13.94;51.36;99568.34;6972528;28;20230;-78
2024/02/05 00:19:14;;;;;;;2.03;1.93;;;;;;;13.81;51.49;99573.72;6997238;28;20312;-79
2024/02/05 00:22:37;;;;;;;2.00;1.90;;;;;;;13.19;52.89;99567.78;6996754;28;20210;-79
2024/02/05 00:25:58;;;;;;;3.33;2.30;;;;;;;13.26;52.60;99565.91;7000689;28;20201;-79
2024/02/05 00:29:20;;;;;;;3.20;2.90;;;;;;;13.81;51.90;99575.63;7000185;28;20221;-78
2024/02/05 00:32:41;;;;;;;2.50;2.30;;;;;;;13.98;51.57;99569.56;7001295;28;20208;-79
2024/02/05 00:36:03;;;;;;;2.27;2.00;;;;;;;14.14;50.93;99555.59;7000613;28;20235;-79
2024/02/05 00:39:26;;;;;;;2.33;2.20;;;;;;;14.13;50.56;99563.94;6981798;28;20239;-79
2024/02/05 00:42:47;;;;;;;2.10;2.00;;;;;;;13.95;51.11;99555.59;6996307;28;20324;-79
2024/02/05 00:46:09;;;;;;;2.27;2.10;;;;;;;13.90;50.84;99555.38;6986651;28;20261;-78
2024/02/05 00:49:30;;;;;;;2.10;2.00;;;;;;;13.89;51.28;99553.72;6988285;28;20245;-79
2024/02/05 00:52:52;;;;;;;2.20;2.10;;;;;;;13.82;50.82;99551.03;6999117;28;20288;-78
2024/02/05 00:56:15;;;;;;;1.90;1.80;;;;;;;13.85;50.92;99572.28;6990662;28;20226;-79
2024/02/05 00:59:36;;;;;;;2.23;2.13;;;;;;;13.54;51.50;99591.00;6999782;28;20308;-79
2024/02/05 01:02:58;;;;;;;2.30;2.10;;;;;;;13.84;51.02;99578.75;7002247;28;20280;-80
2024/02/05 01:06:19;;;;;;;2.40;2.20;;;;;;;13.85;50.95;99598.53;7000774;28;20280;-80
2024/02/05 01:09:42;;;;;;;2.30;2.07;;;;;;;13.86;50.83;99608.38;6981306;28;20271;-80
2024/02/05 01:13:05;;;;;;;2.00;1.90;;;;;;;13.44;51.08;99571.59;6994713;28;20214;-80
2024/02/05 01:16:26;;;;;;;2.40;2.20;;;;;;;13.40;52.70;99597.41;7000699;28;20289;-79
2024/02/05 01:19:51;;;;;;;1.93;1.83;;;;;;;12.90;53.59;99622.16;7001035;28;20692;-80
2024/02/05 01:23:13;;;;;;;2.53;2.33;;;;;;;13.25;52.99;99622.97;7001511;28;20201;-80
2024/02/05 01:26:34;;;;;;;2.30;2.10;;;;;;;13.77;51.76;99621.28;7000382;28;20193;-80
2024/02/05 01:29:57;;;;;;;2.20;2.00;;;;;;;13.76;51.64;99624.19;6992174;28;20221;-80
2024/02/05 01:33:19;;;;;;;2.87;2.33;;;;;;;13.83;51.20;99631.31;7000780;28;20301;-80
2024/02/05 01:36:40;;;;;;;3.30;3.00;;;;;;;13.63;51.47;99627.69;7000416;28;20312;-79
2024/02/05 01:40:02;;;;;;;2.90;2.37;;;;;;;13.67;51.74;99628.97;6998563;28;20253;-80
2024/02/05 01:43:24;;;;;;;3.23;2.87;;;;;;;14.03;50.71;99631.31;6994762;28;20198;-79
2024/02/05 01:46:47;;;;;;;1.90;1.80;;;;;;;13.17;52.61;99634.81;6999318;28;20202;-80
2024/02/05 01:50:10;;;;;;;1.80;1.70;;;;;;;13.20;53.28;99642.53;6998328;28;21049;-80
2024/02/05 01:53:34;;;;;;;2.07;1.97;;;;;;;13.34;53.14;99633.44;6998556;28;20211;-79
2024/02/05 01:56:56;;;;;;;1.90;1.80;;;;;;;13.00;54.07;99633.50;6997654;28;20229;-80
2024/02/05 02:00:18;;;;;;;1.43;1.43;;;;;;;12.66;54.78;99640.75;6997207;28;20226;-80
2024/02/05 02:03:42;;;;;;;2.87;1.53;;;;;;;12.95;53.79;99633.28;6997456;28;20675;-80
2024/02/05 02:07:04;;;;;;;1.80;1.70;;;;;;;12.95;54.35;99648.63;6996647;28;20241;-80
2024/02/05 02:10:26;;;;;;;1.70;1.60;;;;;;;12.71;54.91;99649.09;6997013;28;20221;-80
2024/02/05 02:13:47;;;;;;;3.00;1.93;;;;;;;12.69;54.98;99646.59;6996726;28;20292;-77
2024/02/05 02:17:09;;;;;;;2.73;1.60;;;;;;;12.81;54.38;99641.47;6995980;28;20237;-77
2024/02/05 02:20:34;;;;;;;1.80;1.50;;;;;;;12.69;54.71;99638.47;6996820;28;20366;-77
2024/02/05 02:23:57;;;;;;;1.73;1.60;;;;;;;12.75;54.51;99642.28;6996535;28;20241;-78
2024/02/05 02:27:19;;;;;;;1.50;1.50;;;;;;;12.53;55.26;99646.91;6986304;28;20335;-80
2024/02/05 02:30:40;;;;;;;1.70;1.60;;;;;;;12.78;54.79;99644.56;6968809;28;20800;-79
2024/02/05 02:34:07;;;;;;;2.67;1.87;;;;;;;12.82;54.13;99635.03;6985346;28;20230;-79
2024/02/05 02:37:31;;;;;;;1.93;1.40;;;;;;;12.97;53.51;99628.47;6968098;28;20191;-80
2024/02/05 02:40:58;;;;;;;1.60;1.50;;;;;;;12.68;54.44;99630.56;6993815;28;20233;-79
2024/02/05 02:44:19;;;;;;;1.40;1.40;;;;;;;12.68;54.04;99627.88;7000285;28;20215;-80
2024/02/05 02:47:42;;;;;;;1.57;1.57;;;;;;;12.62;54.19;99615.97;7000630;28;20426;-79
2024/02/05 02:51:04;;;;;;;1.60;1.50;;;;;;;12.85;53.98;99631.91;7003683;28;20315;-80
2024/02/05 02:54:26;;;;;;;3.13;1.40;;;;;;;12.99;53.11;99639.13;7003166;28;20244;-80
2024/02/05 02:57:50;;;;;;;1.60;1.57;;;;;;;13.05;53.01;99641.03;7001426;28;20213;-79
2024/02/05 03:01:12;;;;;;;1.40;1.40;;;;;;;13.43;51.48;99639.50;6998393;28;20288;-80
2024/02/05 03:04:33;;;;;;;1.70;1.60;;;;;;;13.14;51.90;99635.22;6987159;28;20276;-80
2024/02/05 03:07:55;;;;;;;1.40;1.40;;;;;;;13.01;52.35;99632.47;7000223;28;20298;-80
2024/02/05 03:11:16;;;;;;;1.60;1.50;;;;;;;12.94;52.83;99617.19;7000635;28;20303;-80
2024/02/05 03:14:39;;;;;;;1.60;1.50;;;;;;;12.84;53.35;99632.94;6998192;28;20380;-80
2024/02/05 03:18:01;;;;;;;1.70;1.60;;;;;;;12.66;53.55;99625.34;6995734;28;20296;-79
2024/02/05 03:21:22;;;;;;;1.30;1.30;;;;;;;12.81;52.87;99606.28;6995441;28;20642;-80
2024/02/05 03:24:44;;;;;;;2.00;1.87;;;;;;;12.53;53.68;99609.03;6999495;28;20343;-80
2024/02/05 03:28:07;;;;;;;1.53;1.50;;;;;;;12.56;53.80;99611.34;6995524;28;20767;-79
2024/02/05 03:31:30;;;;;;;1.53;1.43;;;;;;;12.81;53.24;99623.34;6995352;28;20237;-79
2024/02/05 03:34:51;;;;;;;1.43;1.30;;;;;;;12.77;53.42;99621.25;6995884;28;20316;-79
2024/02/05 03:38:13;;;;;;;1.83;1.47;;;;;;;13.07;52.31;99628.94;6994878;28;20362;-80
2024/02/05 03:41:34;;;;;;;1.57;1.47;;;;;;;13.06;52.57;99639.97;7002526;28;20350;-79
2024/02/05 03:44:56;;;;;;;1.60;1.50;;;;;;;13.10;52.64;99635.84;7007475;28;20225;-80
2024/02/05 03:48:20;;;;;;;1.60;1.50;;;;;;;12.91;52.89;99634.66;6995147;28;20664;-79
2024/02/05 03:51:41;;;;;;;1.43;1.20;;;;;;;13.07;52.28;99641.66;6971916;28;20222;-79
2024/02/05 03:55:03;;;;;;;1.47;1.40;;;;;;;12.67;53.41;99643.25;6973863;28;20718;-79
2024/02/05 03:58:25;;;;;;;1.40;1.40;;;;;;;12.77;53.26;99642.91;6973260;28;20336;-79
2024/02/05 04:01:46;;;;;;;1.60;1.40;;;;;;;13.02;52.73;99636.84;7005244;28;20321;-79
2024/02/05 04:05:10;;;;;;;1.47;1.37;;;;;;;13.09;52.19;99642.28;7006529;28;20240;-79
2024/02/05 04:08:31;;;;;;;1.57;1.47;;;;;;;13.00;52.46;99638.91;7004997;28;20234;-79
2024/02/05 04:11:54;;;;;;;1.83;1.73;;;;;;;13.25;51.95;99645.50;7005826;28;20301;-80
2024/02/05 04:15:16;;;;;;;1.80;1.70;;;;;;;12.86;53.01;99644.44;7005223;28;20222;-80
2024/02/05 04:18:37;;;;;;;1.80;1.70;;;;;;;12.52;54.07;99647.09;7012252;28;20201;-80
2024/02/05 04:22:00;;;;;;;1.77;1.67;;;;;;;12.62;53.90;99655.72;7016117;28;20299;-80
2024/02/05 04:25:21;;;;;;;2.23;2.00;;;;;;;12.71;53.85;99651.81;7008334;28;20336;-79
2024/02/05 04:28:43;;;;;;;2.23;2.00;;;;;;;12.40;54.59;99654.91;6998439;28;20210;-80
2024/02/05 04:32:05;;;;;;;2.00;1.90;;;;;;;12.16;55.32;99641.81;7002736;28;20230;-80
2024/02/05 04:35:27;;;;;;;1.83;1.73;;;;;;;12.21;55.56;99658.28;7003452;28;20380;-80
2024/02/05 04:38:50;;;;;;;2.27;1.90;;;;;;;12.25;55.83;99656.03;7007808;28;20304;-80
2024/02/05 04:42:11;;;;;;;2.30;2.20;;;;;;;12.20;55.90;99653.91;7002985;28;20209;-79
2024/02/05 04:45:33;;;;;;;2.37;1.87;;;;;;;11.53;57.50;99643.63;7002265;28;20671;-80
2024/02/05 04:48:54;;;;;;;2.30;1.90;;;;;;;11.85;57.08;99662.09;7004119;28;20217;-80
2024/02/05 04:52:16;;;;;;;2.70;2.10;;;;;;;11.99;56.83;99669.31;7008356;28;20247;-80
2024/02/05 04:55:41;;;;;;;3.03;2.03;;;;;;;11.84;57.40;99668.53;7008443;28;20256;-80
2024/02/05 04:59:03;;;;;;;4.63;4.23;;;;;;;11.84;57.18;99661.25;7033318;28;20286;-79
2024/02/05 05:02:25;;;;;;;2.27;1.90;;;;;;;11.99;57.17;99650.41;6993218;28;20676;-80
2024/02/05 05:05:46;;;;;;;2.53;2.33;;;;;;;12.30;56.41;99667.09;7000865;28;20289;-80
2024/02/05 05:09:09;;;;;;;2.20;2.00;;;;;;;12.13;56.72;99654.88;7002032;28;20314;-80
2024/02/05 05:12:32;;;;;;;2.00;1.90;;;;;;;12.40;56.31;99662.19;7002843;28;20261;-80
2024/02/05 05:15:56;;;;;;;2.77;1.83;;;;;;;12.01;56.48;99653.72;7001842;28;20727;-80
2024/02/05 05:19:18;;;;;;;2.03;1.80;;;;;;;12.67;55.32;99680.28;6991866;28;20305;-80
2024/02/05 05:22:40;;;;;;;2.00;1.90;;;;;;;12.66;54.50;99673.22;6973450;28;20210;-80
2024/02/05 05:26:01;;;;;;;2.20;2.00;;;;;;;12.55;55.09;99668.34;6976523;28;20704;-80
2024/02/05 05:29:24;;;;;;;1.80;1.70;;;;;;;12.91;53.84;99667.13;6997906;28;20312;-80
2024/02/05 05:32:46;;;;;;;1.70;1.70;;;;;;;12.44;54.61;99668.88;6999197;28;20306;-80
2024/02/05 05:36:08;;;;;;;1.73;1.67;;;;;;;12.20;55.40;99661.19;6995414;28;20767;-79
2024/02/05 05:39:30;;;;;;;1.60;1.50;;;;;;;12.21;55.07;99666.41;6996808;28;20312;-79
2024/02/05 05:42:51;;;;;;;1.70;1.60;;;;;;;12.43;54.36;99667.19;6997549;28;20197;-79
2024/02/05 05:46:14;;;;;;;1.50;1.50;;;;;;;12.57;53.92;99669.81;6986413;28;20722;-79
2024/02/05 05:49:36;;;;;;;1.50;1.50;;;;;;;13.04;52.94;99682.66;6969697;28;20269;-79
2024/02/05 05:52:57;;;;;;;2.57;1.67;;;;;;;13.26;51.91;99667.97;6974343;28;20279;-79
2024/02/05 05:56:19;;;;;;;1.70;1.60;;;;;;;13.21;51.65;99640.69;7025155;28;20299;-80
2024/02/05 05:59:41;;;;;;;3.20;2.37;;;;;;;12.93;52.54;99666.94;7002371;28;20223;-80
2024/02/05 06:03:06;;;;;;;1.67;1.57;;;;;;;12.87;52.87;99663.16;6997506;28;20197;-83
2024/02/05 06:06:27;;;;;;;1.80;1.70;;;;;;;12.90;52.62;99653.78;7003050;28;20608;-82
2024/02/05 06:09:49;;;;;;;1.90;1.80;;;;;;;12.72;53.14;99639.94;7011494;28;20245;-84
2024/02/05 06:13:10;;;;;;;1.60;1.60;;;;;;;12.78;52.71;99652.69;6998776;28;20299;-80
2024/02/05 06:16:32;;;;;;;2.10;2.00;;;;;;;12.27;54.52;99651.28;6998407;28;20652;-80
2024/02/05 06:19:55;;;;;;;4.30;2.00;;;;;;;12.27;54.70;99635.06;6997994;28;20609;-80
2024/02/05 06:23:16;;;;;;;2.33;2.13;;;;;;;12.20;54.91;99648.50;6998133;28;20213;-79
2024/02/05 06:26:38;;;;;;;2.60;2.40;;;;;;;11.92;55.75;99653.03;6998033;28;20300;-80
2024/02/05 06:29:59;;;;;;;2.20;2.00;;;;;;;11.97;55.41;99652.44;7000735;28;20276;-80
2024/02/05 06:33:21;;;;;;;3.93;2.17;;;;;;;12.12;54.88;99648.66;7001691;28;20255;-80
2024/02/05 06:36:44;;;;;;;2.20;2.10;;;;;;;11.87;55.41;99657.34;7000192;28;20246;-81
2024/02/05 06:40:07;;;;;;;2.30;2.03;;;;;;;11.47;56.63;99656.06;7000610;28;20317;-79
2024/02/05 06:43:32;;;;;;;2.63;2.03;;;;;;;11.36;56.93;99655.69;7001028;28;20205;-80
2024/02/05 06:46:54;;;;;;;2.00;1.90;;;;;;;11.44;56.31;99648.31;7011007;28;20212;-79
2024/02/05 06:50:16;;;;;;;2.80;2.57;;;;;;;11.57;56.38;99647.66;7003539;28;20221;-80
2024/02/05 06:53:38;;;;;;;2.67;2.33;;;;;;;11.94;55.34;99658.25;7003716;28;20216;-82
2024/02/05 06:57:01;;;;;;;1.90;1.80;;;;;;;12.19;54.55;99662.22;7004535;28;20260;-82
2024/02/05 07:00:22;;;;;;;3.90;3.60;;;;;;;12.31;53.95;99658.81;7005590;28;20228;-82
2024/02/05 07:03:44;;;;;;;1.90;1.80;;;;;;;11.96;55.00;99664.28;7004402;28;20697;-80
2024/02/05 07:07:05;;;;;;;4.47;1.87;;;;;;;12.18;54.63;99660.53;7005101;28;20253;-80
2024/02/05 07:10:28;;;;;;;2.40;2.13;;;;;;;12.17;54.13;99658.88;7006059;28;20253;-79
2024/02/05 07:13:50;;;;;;;2.40;2.20;;;;;;;11.71;55.24;99669.25;7003448;28;20721;-80
2024/02/05 07:17:14;;;;;;;2.03;1.80;;;;;;;11.81;55.18;99655.41;7000956;28;20383;-80
2024/02/05 07:20:35;;;;;;;2.17;1.97;;;;;;;11.93;54.52;99646.59;6996115;28;20347;-79
2024/02/05 07:23:57;;;;;;;2.17;2.00;;;;;;;11.75;55.31;99667.81;7003884;28;20692;-80
2024/02/05 07:27:21;;;;;;;2.00;1.90;;;;;;;11.32;56.78;99676.84;7016968;28;20228;-79
2024/02/05 07:30:42;;;;;;;2.37;2.17;;;;;;;11.50;56.08;99674.56;6980481;28;20245;-79
2024/02/05 07:34:04;;;;;;;2.10;2.00;;;;;;;11.76;55.43;99688.38;6972766;28;20245;-79
2024/02/05 07:37:25;;;;;;;2.10;2.00;;;;;;;11.63;55.55;99673.91;7008895;28;20248;-78
2024/02/05 07:40:47;;;;;;;2.17;1.97;;;;;;;11.77;55.42;99670.31;7000451;28;20774;-78
2024/02/05 07:44:10;;;;;;;2.50;2.30;;;;;;;11.25;57.11;99675.91;6995718;28;20212;-77
2024/02/05 07:47:31;;;;;;;2.40;2.13;;;;;;;11.23;56.83;99682.53;6995090;28;20205;-78
2024/02/05 07:50:53;;;;;;;2.40;2.20;;;;;;;11.16;57.54;99684.31;6997398;28;20793;-78
2024/02/05 07:54:14;;;;;;;2.40;2.20;;;;;;;11.02;57.47;99696.78;6998324;28;20259;-78
2024/02/05 07:57:36;;;;;;;4.47;2.37;;;;;;;11.55;55.99;99688.34;6995394;28;20232;-78
2024/02/05 08:01:00;;;;;;;3.00;2.00;;;;;;;11.58;56.18;99687.97;6991512;28;20284;-79
2024/02/05 08:04:21;;;;;;;2.53;2.13;;;;;;;11.60;55.66;99677.00;7001009;28;20216;-78
2024/02/05 08:07:43;;;;;;;2.23;2.10;;;;;;;11.81;55.66;99682.44;7012335;28;20211;-80
2024/02/05 08:11:05;;;;;;;2.20;2.10;;;;;;;12.47;53.61;99682.00;7013610;28;20324;-78
2024/02/05 08:14:26;;;;;;;1.90;1.80;;;;;;;12.51;53.33;99673.31;7007592;28;20293;-77
2024/02/05 08:17:49;;;;;;;2.37;1.90;;;;;;;12.05;53.94;99663.94;7005445;28;20226;-78
2024/02/05 08:21:11;;;;;;;3.00;2.03;;;;;;;12.26;53.97;99679.31;7019502;28;20289;-79
2024/02/05 08:24:32;;;;;;;2.00;1.90;;;;;;;12.76;52.38;99681.81;6999947;28;20279;-78
2024/02/05 08:27:56;;;;;;;2.10;1.93;;;;;;;12.60;53.21;99676.69;6994558;28;20202;-78
2024/02/05 08:31:19;;;;;;;2.40;1.87;;;;;;;13.10;50.90;99652.09;7000144;28;20229;-82
2024/02/05 08:34:42;;;;;;;2.10;1.90;;;;;;;13.13;51.67;99667.91;7000121;28;20271;-77
2024/02/05 08:38:04;;;;;;;1.83;1.73;;;;;;;13.37;50.01;99652.00;6997134;28;20222;-77
2024/02/05 08:41:25;;;;;;;1.93;1.83;;;;;;;13.60;50.27;99671.47;7003029;28;20258;-77
2024/02/05 08:44:47;;;;;;;1.73;1.63;;;;;;;15.37;45.66;99648.72;6993330;28;20264;-78
2024/02/05 08:48:08;;;;;;;2.00;1.60;;;;;;;15.59;44.28;99652.81;6990394;28;20236;-77
2024/02/05 08:51:33;;;;;;;3.20;2.47;;;;;;;15.97;43.13;99657.19;6990133;28;20844;-77
2024/02/05 08:54:55;;;;;;;1.77;1.67;;;;;;;17.49;40.63;99659.19;6999870;28;20216;-77
2024/02/05 08:58:16;;;;;;;1.87;1.77;;;;;;;17.43;39.76;99657.34;6998876;28;20634;-78
2024/02/05 09:01:38;;;;;;;1.60;1.50;;;;;;;16.91;41.03;99649.75;6997079;28;20258;-77
2024/02/05 09:04:59;;;;;;;1.83;1.37;;;;;;;15.08;44.67;99655.47;6971692;28;20394;-77
2024/02/05 09:08:22;;;;;;;1.93;1.60;;;;;;;15.00;45.72;99660.31;6970528;28;20290;-77
2024/02/05 09:11:44;;;;;;;2.03;1.50;;;;;;;15.13;45.04;99647.53;6985483;28;20364;-78
2024/02/05 09:15:06;;;;;;;2.90;2.10;;;;;;;14.69;46.02;99650.13;6997526;28;20250;-78
2024/02/05 09:18:27;;;;;;;2.17;1.97;;;;;;;14.38;47.00;99651.81;6970374;28;20223;-78
2024/02/05 09:21:49;;;;;;;1.73;1.63;;;;;;;13.79;48.45;99657.13;6996658;28;20872;-77
2024/02/05 09:25:12;;;;;;;1.80;1.70;;;;;;;14.01;47.94;99664.06;6986043;28;20664;-78
2024/02/05 09:28:34;;;;;;;2.13;1.90;;;;;;;12.78;50.94;99658.09;6997762;28;20199;-78
2024/02/05 09:31:55;;;;;;;1.77;1.67;;;;;;;12.77;51.14;99645.59;6998237;28;20262;-79
2024/02/05 09:35:17;;;;;;;1.90;1.80;;;;;;;12.58;51.10;99670.66;6997470;28;20661;-78
2024/02/05 09:38:38;;;;;;;3.27;1.97;;;;;;;13.22;50.88;99664.03;6998276;28;20221;-79
2024/02/05 09:42:02;;;;;;;4.20;2.00;;;;;;;13.34;49.77;99662.41;6998812;28;20229;-79
2024/02/05 09:45:27;;;;;;;1.90;1.80;;;;;;;13.39;50.06;99649.09;6999687;28;20568;-79
2024/02/05 09:48:49;;;;;;;2.13;1.80;;;;;;;13.61;49.50;99675.84;6992268;28;20290;-79
2024/02/05 09:52:12;;;;;;;1.80;1.70;;;;;;;13.79;48.83;99672.56;6972927;28;20348;-79
2024/02/05 09:55:34;;;;;;;2.53;1.67;;;;;;;13.64;49.54;99667.28;6974912;28;20245;-79
2024/02/05 09:58:57;;;;;;;2.00;1.60;;;;;;;13.33;50.11;99666.16;6987396;28;20721;-79
2024/02/05 10:02:20;;;;;;;3.57;2.10;;;;;;;13.11;50.47;99656.47;7009210;28;20288;-80
2024/02/05 10:05:41;;;;;;;3.27;2.40;;;;;;;14.18;47.85;99657.22;6997522;28;21755;-79
2024/02/05 10:09:05;;;;;;;2.33;2.00;;;;;;;14.33;47.75;99665.19;6991066;28;20256;-79
2024/02/05 10:12:26;;;;;;;2.67;2.00;;;;;;;14.37;47.79;99661.00;7001398;28;20248;-80
2024/02/05 10:15:49;;;;;;;2.37;2.13;;;;;;;14.66;46.57;99660.56;7000466;28;20251;-79
2024/02/05 10:19:11;;;;;;;2.40;1.70;;;;;;;14.92;46.78;99650.50;6998879;28;20240;-80
2024/02/05 10:22:32;;;;;;;2.03;1.83;;;;;;;15.49;44.80;99657.88;7008065;28;20220;-87
2024/02/05 10:25:56;;;;;;;1.97;1.87;;;;;;;15.61;44.98;99662.41;6981925;28;20227;-83
2024/02/05 10:29:24;;;;;;;1.60;1.50;;;;;;;15.56;44.21;99620.59;6992251;28;20718;-86
2024/02/05 10:32:47;;;;;;;1.83;1.60;;;;;;;16.00;43.59;99643.16;6998932;28;20180;-86
2024/02/05 10:36:10;;;;;;;2.07;1.87;;;;;;;15.94;43.40;99641.31;6999894;28;20202;-83
2024/02/05 10:39:33;;;;;;;2.50;1.90;;;;;;;16.10;43.58;99599.16;7000859;28;20235;-87
2024/02/05 10:42:55;;;;;;;1.87;1.77;;;;;;;16.65;42.80;99631.78;6986163;28;20220;-86
2024/02/05 10:46:18;;;;;;;3.30;1.93;;;;;;;16.57;43.03;99593.94;7005190;28;20205;-86
2024/02/05 10:49:41;;;;;;;4.00;1.90;;;;;;;16.96;41.42;99609.03;6997528;28;20309;-79
2024/02/05 10:53:03;;;;;;;2.27;2.07;;;;;;;15.88;43.75;99609.56;6998060;28;20204;-81
2024/02/05 10:56:25;;;;;;;7.80;2.83;;;;;;;16.77;41.91;99597.31;6998445;28;20253;-82
2024/02/05 10:59:46;;;;;;;3.47;1.93;;;;;;;17.42;40.81;99590.28;6983039;28;20754;-81
2024/02/05 11:03:12;;;;;;;2.63;2.00;;;;;;;17.81;40.43;99595.19;7005037;28;20241;-83
2024/02/05 11:06:38;;;;;;;3.53;1.70;;;;;;;16.87;41.54;99578.53;6997202;28;20338;-82
2024/02/05 11:10:02;;;;;;;3.43;2.10;;;;;;;16.71;42.06;99557.38;6997951;28;20221;-80
2024/02/05 11:13:29;;;;;;;2.97;2.50;;;;;;;17.24;41.25;99577.47;6997357;28;20200;-81
2024/02/05 11:16:51;;;;;;;4.73;2.73;;;;;;;17.17;41.10;99570.44;6995460;28;20217;-80
2024/02/05 11:20:13;;;;;;;1.83;1.60;;;;;;;16.78;42.03;99560.84;7000234;28;20229;-80
2024/02/05 11:23:37;;;;;;;4.67;2.03;;;;;;;16.14;43.11;99557.66;7009071;28;20211;-81
2024/02/05 11:26:59;;;;;;;4.17;2.00;;;;;;;16.63;42.67;99562.28;7007892;28;20211;-81
2024/02/05 11:30:21;;;;;;;2.53;1.90;;;;;;;17.14;41.66;99562.72;7007415;28;20745;-82
2024/02/05 11:33:42;;;;;;;6.20;1.80;;;;;;;17.19;41.14;99546.50;7007514;28;20291;-81
2024/02/05 11:37:10;;;;;;;2.63;1.83;;;;;;;17.50;41.03;99528.06;7004140;28;20221;-83
2024/02/05 11:40:33;;;;;;;2.87;1.90;;;;;;;16.74;41.84;99535.09;7003123;28;20289;-82
2024/02/05 11:44:03;;;;;;;3.53;1.97;;;;;;;16.98;41.36;99530.66;7004432;28;20204;-80
2024/02/05 11:47:25;;;;;;;2.53;2.10;;;;;;;17.18;41.42;99539.41;7001429;28;20295;-81
2024/02/05 11:50:46;;;;;;;2.30;1.77;;;;;;;17.76;39.91;99505.84;7003093;28;20722;-81
2024/02/05 11:54:08;;;;;;;2.03;1.53;;;;;;;17.43;41.00;99497.34;7002483;28;20248;-81
2024/02/05 11:57:31;;;;;;;2.17;1.80;;;;;;;17.62;40.55;99504.41;6997360;28;20723;-81
2024/02/05 12:00:53;;;;;;;3.77;2.10;;;;;;;17.71;39.95;99475.72;6996738;28;20266;-82
2024/02/05 12:04:15;;;;;;;2.83;1.70;;;;;;;17.91;40.27;99491.75;7002717;28;20228;-81
2024/02/05 12:07:37;;;;;;;1.70;1.57;;;;;;;18.07;39.27;99471.97;7013687;28;20198;-82
2024/02/05 12:10:58;;;;;;;4.97;1.90;;;;;;;17.69;40.54;99477.03;7021514;28;20251;-82
2024/02/05 12:14:22;;;;;;;4.13;2.20;;;;;;;17.87;39.70;99469.56;7002469;28;20209;-82
2024/02/05 12:17:43;;;;;;;1.90;1.80;;;;;;;18.48;38.35;99455.47;7006625;28;20217;-80
2024/02/05 12:21:06;;;;;;;4.13;1.70;;;;;;;17.27;40.45;99461.72;6995636;28;20302;-81
2024/02/05 12:24:27;;;;;;;3.93;1.80;;;;;;;17.21;40.92;99454.47;6996876;28;20340;-81
2024/02/05 12:27:49;;;;;;;1.97;1.57;;;;;;;16.89;41.43;99456.56;6991695;28;20343;-81
2024/02/05 12:31:19;;;;;;;3.80;1.87;;;;;;;17.92;39.81;99450.59;6991213;28;20254;-80
2024/02/05 12:34:45;;;;;;;3.60;1.70;;;;;;;18.22;38.97;99436.84;7013570;28;20232;-81
2024/02/05 12:38:06;;;;;;;2.70;1.90;;;;;;;18.07;39.59;99436.47;6991239;28;20221;-81
2024/02/05 12:41:28;;;;;;;3.30;1.80;;;;;;;18.88;38.66;99437.19;6983657;28;20233;-81
2024/02/05 12:44:50;;;;;;;2.97;1.80;;;;;;;18.78;37.79;99432.38;6986252;28;20672;-81
2024/02/05 12:48:14;;;;;;;2.23;1.87;;;;;;;18.81;37.61;99425.59;7001839;28;20676;-81
2024/02/05 12:51:36;;;;;;;2.90;2.20;;;;;;;18.65;38.45;99420.88;7001630;28;20688;-81
2024/02/05 12:54:58;;;;;;;4.43;2.37;;;;;;;19.29;37.43;99409.59;7004996;28;20210;-80
2024/02/05 12:58:22;;;;;;;1.80;1.70;;;;;;;18.69;38.43;99400.22;6999113;28;20226;-80
2024/02/05 13:01:45;;;;;;;2.27;1.87;;;;;;;18.96;37.93;99402.13;6999419;28;20229;-81
2024/02/05 13:05:08;;;;;;;3.13;1.70;;;;;;;19.47;37.13;99407.47;6998304;28;20260;-81
2024/02/05 13:08:31;;;;;;;2.93;1.80;;;;;;;18.87;37.09;99380.91;6996665;28;20338;-81
2024/02/05 13:11:52;;;;;;;3.87;1.80;;;;;;;18.87;37.84;99389.09;6995023;28;20232;-82
2024/02/05 13:15:15;;;;;;;3.10;1.80;;;;;;;18.44;38.66;99386.84;7003058;28;20248;-82
2024/02/05 13:18:36;;;;;;;2.70;1.90;;;;;;;18.98;38.08;99385.47;7001712;28;20221;-81
2024/02/05 13:22:04;;;;;;;3.17;2.87;;;;;;;18.98;37.58;99372.63;7000724;28;20312;-81
2024/02/05 13:25:27;;;;;;;3.70;1.80;;;;;;;18.75;37.77;99348.13;7007475;28;20229;-81
2024/02/05 13:28:49;;;;;;;7.23;2.00;;;;;;;18.45;38.38;99366.66;7015645;28;20197;-81
2024/02/05 13:32:10;;;;;;;3.57;2.30;;;;;;;18.53;38.31;99319.88;7032807;28;20205;-81
2024/02/05 13:35:32;;;;;;;3.17;1.90;;;;;;;18.64;37.75;99323.63;7001823;28;20201;-82
2024/02/05 13:38:55;;;;;;;3.50;2.03;;;;;;;18.75;37.93;99347.34;6991860;28;20308;-81
2024/02/05 13:42:18;;;;;;;7.13;1.97;;;;;;;18.71;37.96;99343.41;7009028;28;20259;-82
2024/02/05 13:45:40;;;;;;;4.53;1.77;;;;;;;19.23;37.68;99337.56;7012662;28;20289;-83
2024/02/05 13:49:04;;;;;;;3.20;1.60;;;;;;;19.29;37.86;99336.56;7007445;28;20202;-86
2024/02/05 13:52:25;;;;;;;2.73;1.60;;;;;;;19.55;36.82;99335.09;6998431;28;20198;-80
2024/02/05 13:55:48;;;;;;;4.00;1.90;;;;;;;19.41;36.68;99336.50;7000313;28;20296;-81
2024/02/05 13:59:10;;;;;;;3.60;2.00;;;;;;;19.18;37.18;99334.75;7000462;28;20284;-82
2024/02/05 14:02:34;;;;;;;2.90;1.67;;;;;;;19.26;36.35;99333.50;6999266;28;20289;-81
2024/02/05 14:05:55;;;;;;;3.30;1.80;;;;;;;19.43;36.62;99334.34;6999710;28;20201;-81
2024/02/05 14:09:17;;;;;;;3.40;2.03;;;;;;;18.71;37.81;99322.41;7007327;28;20283;-80
2024/02/05 14:12:40;;;;;;;4.20;1.80;;;;;;;18.13;38.81;99329.09;7004093;28;20563;-80
2024/02/05 14:16:02;;;;;;;3.37;1.67;;;;;;;18.46;38.18;99321.09;7002997;28;20744;-81
2024/02/05 14:19:23;;;;;;;3.07;1.93;;;;;;;18.93;37.73;99326.06;7014008;28;20233;-83
2024/02/05 14:22:45;;;;;;;4.80;1.77;;;;;;;18.95;37.52;99321.22;7012903;28;20198;-83
2024/02/05 14:26:06;;;;;;;3.17;1.80;;;;;;;18.93;37.51;99319.78;7017094;28;20246;-81
2024/02/05 14:29:29;;;;;;;3.50;2.13;;;;;;;18.53;37.97;99284.38;6991890;28;20217;-81
2024/02/05 14:32:51;;;;;;;5.00;1.70;;;;;;;18.54;38.15;99301.56;7008231;28;20351;-81
2024/02/05 14:36:12;;;;;;;3.73;1.80;;;;;;;18.52;38.29;99293.63;6999091;28;20197;-83
2024/02/05 14:39:35;;;;;;;3.17;2.10;;;;;;;18.69;37.50;99297.22;7013836;28;20733;-81
2024/02/05 14:42:57;;;;;;;3.03;1.77;;;;;;;18.67;37.80;99304.00;7008254;28;20212;-80
2024/02/05 14:46:19;;;;;;;4.07;2.03;;;;;;;18.63;37.65;99286.47;7005614;28;20353;-81
2024/02/05 14:49:41;;;;;;;2.50;1.97;;;;;;;18.08;38.79;99299.78;7012716;28;20236;-81
2024/02/05 14:53:03;;;;;;;2.97;2.03;;;;;;;18.22;38.67;99300.34;7019743;28;20258;-81
2024/02/05 14:56:25;;;;;;;3.43;2.17;;;;;;;17.58;39.50;99278.78;7017841;28;20578;-81
2024/02/05 14:59:46;;;;;;;9.67;2.93;;;;;;;18.27;39.88;99286.81;7016631;28;20244;-81
2024/02/05 15:03:09;;;;;;;5.83;2.90;;;;;;;18.28;40.41;99294.75;7007229;28;20205;-81
2024/02/05 15:06:31;;;;;;;8.27;2.57;;;;;;;17.70;40.90;99285.84;7010718;28;20668;-81
2024/02/05 15:09:53;;;;;;;6.20;2.97;;;;;;;17.54;41.23;99286.59;7020505;28;20297;-81
2024/02/05 15:13:14;;;;;;;5.97;3.17;;;;;;;17.29;42.12;99290.59;7015511;28;20243;-81
2024/02/05 15:16:36;;;;;;;7.53;3.17;;;;;;;17.40;41.88;99284.34;7015929;28;20206;-82
2024/02/05 15:19:59;;;;;;;10.93;2.90;;;;;;;17.12;42.75;99268.66;7007146;28;20390;-81
2024/02/05 15:23:20;;;;;;;9.77;3.40;;;;;;;16.63;43.10;99239.06;7017611;28;20303;-82
2024/02/05 15:26:45;;;;;;;6.23;2.87;;;;;;;17.20;42.62;99276.47;7011797;28;20579;-81
2024/02/05 15:30:08;;;;;;;10.37;3.10;;;;;;;17.01;42.81;99252.28;6994938;28;20674;-82
2024/02/05 15:33:32;;;;;;;7.97;4.50;;;;;;;17.39;42.44;99266.34;7015684;28;20229;-81
2024/02/05 15:36:55;;;;;;;6.50;3.00;;;;;;;17.32;41.88;99271.03;6991676;28;20215;-81
2024/02/05 15:40:17;;;;;;;5.97;3.53;;;;;;;17.31;42.43;99263.91;6998461;28;20232;-81
2024/02/05 15:43:38;;;;;;;6.63;3.00;;;;;;;16.87;42.89;99261.75;7015985;28;20212;-82
2024/02/05 15:47:00;;;;;;;7.67;3.00;;;;;;;17.21;42.28;99242.72;7009167;28;20299;-82
2024/02/05 15:50:21;;;;;;;9.20;3.27;;;;;;;17.28;42.24;99243.41;6999832;28;20280;-82
2024/02/05 15:53:45;;;;;;;8.97;3.10;;;;;;;17.28;42.09;99242.59;7010333;28;20274;-82